createdAt,value
2023-05-01T00:02:03.409Z,16.98
2023-05-01T00:06:06.350Z,16.63
2023-05-01T00:10:09.614Z,16.42
2023-05-01T00:14:12.527Z,19.75
2023-05-01T00:18:16.676Z,24.65
2023-05-01T00:22:19.398Z,20.75
2023-05-01T00:26:22.224Z,22.88
2023-05-01T00:30:25.233Z,23.02
2023-05-01T00:34:30.374Z,22.23
2023-05-01T00:38:33.212Z,17.50
2023-05-01T00:42:37.234Z,17.83
2023-05-01T00:46:39.957Z,19.73
2023-05-01T00:50:44.477Z,16.55
2023-05-01T00:54:52.024Z,16.23
2023-05-01T00:58:55.205Z,15.80
2023-05-01T01:02:58.448Z,14.93
2023-05-01T01:07:09.710Z,17.40
2023-05-01T01:11:16.501Z,14.70
2023-05-01T01:15:25.203Z,19.38
2023-05-01T01:19:58.476Z,16.38
2023-05-01T01:24:18.186Z,21.38
2023-05-01T01:28:56.594Z,15.23
2023-05-01T01:33:26.642Z,14.38
2023-05-01T01:37:35.471Z,17.75
2023-05-01T01:41:40.124Z,15.90
2023-05-01T01:45:44.767Z,23.63
2023-05-01T01:49:51.348Z,16.10
2023-05-01T01:53:58.416Z,15.88
2023-05-01T01:58:02.230Z,13.77
2023-05-01T02:02:06.261Z,13.82
2023-05-01T02:06:10.046Z,12.57
2023-05-01T02:10:15.022Z,11.55
2023-05-01T02:14:20.029Z,11.50
2023-05-01T02:18:23.132Z,12.95
2023-05-01T02:22:26.803Z,9.82
2023-05-01T02:26:31.846Z,10.88
2023-05-01T02:30:34.681Z,8.68
2023-05-01T02:34:37.586Z,11.07
2023-05-01T02:38:40.470Z,10.02
2023-05-01T02:42:44.914Z,8.68
2023-05-01T02:46:48.530Z,10.88
2023-05-01T02:50:51.818Z,8.65
2023-05-01T02:54:54.716Z,8.20
2023-05-01T02:58:59.288Z,8.20
2023-05-01T03:03:02.222Z,8.90
2023-05-01T03:07:05.592Z,8.13
2023-05-01T03:11:08.543Z,7.07
2023-05-01T03:15:13.405Z,8.02
2023-05-01T03:19:16.185Z,8.07
2023-05-01T03:23:19.036Z,7.20
2023-05-01T03:27:21.839Z,10.38
2023-05-01T03:31:26.005Z,7.80
2023-05-01T03:35:29.344Z,7.40
2023-05-01T03:39:32.648Z,9.15
2023-05-01T03:43:35.738Z,8.80
2023-05-01T03:47:40.144Z,9.73
2023-05-01T03:51:42.857Z,7.88
2023-05-01T03:55:45.869Z,10.02
2023-05-01T03:59:48.699Z,8.32
2023-05-01T04:03:53.336Z,9.65
2023-05-01T04:07:56.391Z,9.93
2023-05-01T04:11:59.122Z,8.07
2023-05-01T04:16:02.093Z,7.93
2023-05-01T04:20:07.406Z,8.27
2023-05-01T04:24:10.134Z,9.48
2023-05-01T04:28:13.298Z,8.05
2023-05-01T04:32:17.162Z,10.18
2023-05-01T04:40:24.286Z,7.95
2023-05-01T04:44:27.473Z,9.18
2023-05-01T04:48:30.527Z,7.53
2023-05-01T04:52:35.968Z,7.72
2023-05-01T04:56:38.994Z,11.10
2023-05-01T05:00:41.952Z,9.30
2023-05-01T05:04:44.805Z,8.30
2023-05-01T05:08:51.971Z,8.48
2023-05-01T05:12:54.775Z,6.57
2023-05-01T05:16:57.579Z,6.78
2023-05-01T05:21:04.610Z,6.80
2023-05-01T05:25:10.092Z,6.40
2023-05-01T05:29:12.816Z,6.75
2023-05-01T05:33:15.562Z,5.85
2023-05-01T05:37:18.449Z,5.78
2023-05-01T05:41:22.949Z,6.47
2023-05-01T05:45:25.748Z,5.60
2023-05-01T05:49:28.963Z,5.32
2023-05-01T05:53:32.210Z,5.38
2023-05-01T05:57:37.708Z,4.78
2023-05-01T06:01:42.942Z,5.05
2023-05-01T06:05:45.972Z,5.50
2023-05-01T06:09:48.752Z,3.83
2023-05-01T06:13:53.066Z,4.18
2023-05-01T06:17:56.457Z,3.75
2023-05-01T06:21:59.323Z,3.60
2023-05-01T06:26:02.267Z,2.72
2023-05-01T06:30:07.951Z,2.10
2023-05-01T06:34:10.668Z,2.20
2023-05-01T06:38:13.797Z,2.00
2023-05-01T06:42:16.947Z,2.15
2023-05-01T06:46:21.756Z,2.17
2023-05-01T06:50:24.531Z,2.08
2023-05-01T06:54:27.581Z,2.00
2023-05-01T06:58:30.300Z,2.00
2023-05-01T07:02:35.249Z,2.00
2023-05-01T07:06:38.830Z,2.20
2023-05-01T07:14:45.169Z,2.13
2023-05-01T07:18:49.637Z,2.10
2023-05-01T07:22:52.938Z,2.00
2023-05-01T07:31:01.556Z,1.88
2023-05-01T07:35:07.208Z,2.10
2023-05-01T07:39:09.888Z,1.95
2023-05-01T07:43:12.888Z,2.20
2023-05-01T07:47:15.883Z,2.13
2023-05-01T07:51:20.326Z,2.28
2023-05-01T07:55:23.655Z,1.92
2023-05-01T07:59:26.525Z,2.17
2023-05-01T08:03:30.413Z,2.03
2023-05-01T08:07:34.767Z,2.50
2023-05-01T08:11:37.813Z,1.95
2023-05-01T08:15:42.927Z,2.20
2023-05-01T08:19:46.247Z,2.20
2023-05-01T08:27:54.207Z,2.08
2023-05-01T08:31:57.720Z,2.40
2023-05-01T08:36:00.636Z,2.42
2023-05-01T08:40:08.810Z,2.85
2023-05-01T08:44:12.379Z,2.30
2023-05-01T08:48:18.568Z,2.20
2023-05-01T08:52:21.766Z,2.50
2023-05-01T08:56:26.768Z,2.28
2023-05-01T09:00:29.778Z,2.20
2023-05-01T09:08:36.727Z,2.25
2023-05-01T09:12:41.103Z,2.30
2023-05-01T09:16:43.815Z,2.50
2023-05-01T09:20:46.773Z,2.33
2023-05-01T09:24:49.905Z,2.47
2023-05-01T09:28:58.087Z,2.50
2023-05-01T09:33:11.608Z,2.42
2023-05-01T09:37:16.472Z,2.08
2023-05-01T09:41:20.964Z,2.15
2023-05-01T09:45:26.520Z,2.30
2023-05-01T09:49:45.711Z,2.40
2023-05-01T09:53:48.578Z,2.40
2023-05-01T09:57:51.788Z,2.38
2023-05-01T10:01:56.955Z,2.60
2023-05-01T10:06:02.013Z,2.30
2023-05-01T10:10:18.534Z,2.85
2023-05-01T10:14:24.009Z,2.50
2023-05-01T10:18:28.987Z,2.30
2023-05-01T10:22:31.916Z,2.50
2023-05-01T10:26:35.124Z,2.33
2023-05-01T10:30:39.243Z,2.55
2023-05-01T10:34:48.673Z,2.42
2023-05-01T10:38:51.446Z,2.42
2023-05-01T10:43:25.953Z,2.13
2023-05-01T10:47:47.787Z,2.22
2023-05-01T10:52:03.660Z,2.40
2023-05-01T10:56:06.929Z,3.10
2023-05-01T11:00:14.367Z,2.75
2023-05-01T11:04:51.048Z,2.80
2023-05-01T11:08:56.080Z,2.35
2023-05-01T11:12:58.930Z,3.53
2023-05-01T11:17:01.915Z,2.45
2023-05-01T11:21:04.900Z,2.50
2023-05-01T11:25:21.059Z,2.08
2023-05-01T11:29:24.149Z,2.50
2023-05-01T11:33:27.593Z,2.20
2023-05-01T11:37:41.046Z,2.50
2023-05-01T11:41:45.979Z,3.00
2023-05-01T11:45:54.533Z,3.08
2023-05-01T11:49:57.277Z,2.60
2023-05-01T11:54:01.511Z,2.42
2023-05-01T11:58:06.276Z,2.83
2023-05-01T12:02:19.729Z,2.85
2023-05-01T12:06:22.713Z,2.42
2023-05-01T12:14:30.786Z,2.22
2023-05-01T12:18:33.918Z,1.80
2023-05-01T12:22:36.688Z,2.00
2023-05-01T12:26:40.811Z,2.30
2023-05-01T12:30:45.946Z,2.22
2023-05-01T12:34:48.853Z,2.05
2023-05-01T12:38:57.114Z,2.03
2023-05-01T12:43:00.083Z,1.90
2023-05-01T12:47:08.796Z,1.70
2023-05-01T12:51:19.492Z,2.00
2023-05-01T12:55:22.551Z,1.60
2023-05-01T12:59:27.260Z,1.90
2023-05-01T13:03:32.253Z,1.98
2023-05-01T13:07:36.552Z,2.20
2023-05-01T13:11:39.458Z,2.40
2023-05-01T13:15:42.144Z,2.38
2023-05-01T13:19:46.549Z,2.00
2023-05-01T13:23:54.561Z,2.05
2023-05-01T13:27:57.329Z,2.85
2023-05-01T13:32:00.580Z,1.85
2023-05-01T13:36:14.209Z,2.10
2023-05-01T13:40:25.896Z,2.00
2023-05-01T13:44:29.251Z,2.25
2023-05-01T13:48:32.095Z,2.63
2023-05-01T13:52:42.251Z,2.40
2023-05-01T13:56:44.915Z,3.13
2023-05-01T14:00:47.874Z,2.83
2023-05-01T14:04:51.527Z,4.00
2023-05-01T14:08:59.901Z,4.13
2023-05-01T14:13:05.066Z,3.17
2023-05-01T14:17:08.308Z,2.58
2023-05-01T14:21:11.626Z,4.07
2023-05-01T14:25:35.419Z,3.80
2023-05-01T14:29:43.769Z,2.78
2023-05-01T14:33:47.269Z,3.00
2023-05-01T14:37:50.229Z,2.78
2023-05-01T14:41:58.273Z,2.30
2023-05-01T14:46:01.060Z,3.30
2023-05-01T14:50:04.606Z,2.70
2023-05-01T14:54:11.656Z,2.10
2023-05-01T14:58:17.536Z,2.30
2023-05-01T15:02:20.344Z,2.80
2023-05-01T15:06:24.414Z,2.28
2023-05-01T15:10:28.891Z,2.45
2023-05-01T15:14:32.941Z,1.60
2023-05-01T15:18:36.532Z,1.30
2023-05-01T15:22:40.937Z,1.50
2023-05-01T15:26:44.023Z,1.40
2023-05-01T15:30:48.521Z,1.75
2023-05-01T15:34:56.671Z,1.75
2023-05-01T15:38:59.611Z,2.03
2023-05-01T15:43:02.839Z,1.80
2023-05-01T15:51:09.779Z,1.90
2023-05-01T15:55:13.251Z,1.80
2023-05-01T15:59:16.332Z,2.03
2023-05-01T16:03:21.015Z,2.00
2023-05-01T16:07:23.847Z,2.00
2023-05-01T16:11:26.988Z,1.52
2023-05-01T16:19:37.586Z,1.50
2023-05-01T16:23:40.745Z,1.63
2023-05-01T16:27:44.625Z,1.60
2023-05-01T16:31:48.058Z,1.73
2023-05-01T16:35:52.236Z,1.70
2023-05-01T16:39:54.908Z,1.70
2023-05-01T16:44:00.445Z,1.40
2023-05-01T16:48:03.336Z,1.55
2023-05-01T16:52:10.733Z,1.50
2023-05-01T16:56:13.930Z,1.45
2023-05-01T17:04:20.334Z,1.50
2023-05-01T17:08:26.044Z,1.30
2023-05-01T17:12:29.494Z,1.38
2023-05-01T17:16:40.514Z,1.50
2023-05-01T17:20:43.534Z,1.88
2023-05-01T17:24:47.949Z,1.35
2023-05-01T17:28:50.992Z,2.40
2023-05-01T17:32:54.191Z,2.30
2023-05-01T17:36:57.904Z,2.10
2023-05-01T17:41:03.736Z,2.20
2023-05-01T17:45:07.806Z,2.25
2023-05-01T17:49:10.866Z,2.25
2023-05-01T17:53:13.641Z,2.47
2023-05-01T17:57:17.853Z,2.30
2023-05-01T18:01:20.610Z,2.38
2023-05-01T18:05:23.925Z,2.33
2023-05-01T18:09:26.691Z,2.15
2023-05-01T18:13:37.944Z,2.20
2023-05-01T18:17:41.114Z,3.35
2023-05-01T18:21:44.029Z,2.70
2023-05-01T18:25:47.136Z,2.60
2023-05-01T18:29:51.532Z,2.30
2023-05-01T18:33:55.210Z,2.50
2023-05-01T18:37:57.951Z,2.60
2023-05-01T18:42:01.439Z,2.67
2023-05-01T18:46:06.132Z,2.50
2023-05-01T18:50:10.153Z,5.22
2023-05-01T18:54:13.981Z,2.78
2023-05-01T18:58:17.310Z,3.47
2023-05-01T19:02:21.629Z,3.35
2023-05-01T19:06:24.615Z,3.42
2023-05-01T19:10:28.049Z,3.30
2023-05-01T19:14:30.980Z,2.90
2023-05-01T19:18:37.728Z,3.47
2023-05-01T19:22:40.963Z,3.30
2023-05-01T19:26:43.943Z,2.92
2023-05-01T19:30:46.703Z,3.00
2023-05-01T19:34:51.004Z,2.88
2023-05-01T19:38:54.323Z,2.80
2023-05-01T19:42:57.047Z,2.53
2023-05-01T19:47:00.025Z,2.90
2023-05-01T19:51:04.793Z,2.83
2023-05-01T19:55:08.416Z,2.53
2023-05-01T19:59:11.439Z,2.65
2023-05-01T20:03:15.632Z,2.67
2023-05-01T20:07:20.365Z,2.75
2023-05-01T20:11:23.090Z,2.90
2023-05-01T20:15:25.877Z,2.53
2023-05-01T20:19:28.971Z,2.58
2023-05-01T20:23:33.208Z,2.80
2023-05-01T20:27:35.989Z,2.72
2023-05-01T20:31:38.820Z,3.55
2023-05-01T20:35:41.799Z,3.33
2023-05-01T20:39:46.169Z,2.75
2023-05-01T20:43:49.102Z,3.28
2023-05-01T20:47:51.920Z,2.92
2023-05-01T20:51:56.737Z,2.65
2023-05-01T20:56:00.925Z,3.08
2023-05-01T21:00:04.591Z,3.03
2023-05-01T21:04:08.129Z,3.40
2023-05-01T21:08:11.063Z,3.70
2023-05-01T21:12:16.008Z,3.28
2023-05-01T21:16:20.264Z,2.80
2023-05-01T21:20:31.621Z,3.28
2023-05-01T21:24:35.332Z,3.20
2023-05-01T21:28:40.252Z,3.95
2023-05-01T21:32:43.499Z,3.50
2023-05-01T21:36:46.751Z,4.32
2023-05-01T21:40:49.936Z,3.85
2023-05-01T21:44:54.356Z,4.03
2023-05-01T21:48:57.094Z,4.10
2023-05-01T21:53:00.752Z,4.20
2023-05-01T21:57:05.562Z,4.05
2023-05-01T22:01:10.605Z,4.20
2023-05-01T22:05:15.448Z,6.97
2023-05-01T22:09:18.319Z,4.28
2023-05-01T22:13:21.052Z,5.75
2023-05-01T22:17:26.264Z,5.03
2023-05-01T22:21:30.840Z,5.53
2023-05-01T22:25:33.590Z,4.28
2023-05-01T22:29:36.738Z,4.45
2023-05-01T22:33:40.878Z,4.25
2023-05-01T22:37:43.704Z,3.80
2023-05-01T22:41:46.530Z,3.58
2023-05-01T22:45:49.681Z,4.20
2023-05-01T22:49:53.885Z,3.10
2023-05-01T22:53:57.029Z,3.80
2023-05-01T22:57:59.916Z,3.28
2023-05-01T23:02:03.357Z,3.83
2023-05-01T23:06:08.111Z,4.03
2023-05-01T23:10:11.333Z,3.72
2023-05-01T23:14:14.975Z,4.10
2023-05-01T23:18:22.843Z,6.13
2023-05-01T23:22:27.079Z,4.05
2023-05-01T23:26:30.043Z,4.00
2023-05-01T23:30:33.070Z,3.40
2023-05-01T23:34:35.852Z,5.10
2023-05-01T23:38:40.380Z,4.05
2023-05-01T23:42:43.945Z,3.88
2023-05-01T23:46:46.737Z,4.95
2023-05-01T23:50:49.816Z,4.35
2023-05-01T23:54:54.396Z,4.78
2023-05-01T23:58:57.600Z,5.60
